createdAt,value
2023-03-03T00:00:46.728Z,1.20
2023-03-03T00:03:28.525Z,1.30
2023-03-03T00:05:55.390Z,1.20
2023-03-03T00:08:37.870Z,1.20
2023-03-03T00:11:05.316Z,1.20
2023-03-03T00:19:50.414Z,1.20
2023-03-03T00:22:40.444Z,1.20
2023-03-03T00:30:53.487Z,1.20
2023-03-03T01:25:34.995Z,1.00
2023-03-03T01:38:38.176Z,0.60
2023-03-03T01:41:11.064Z,0.60
2023-03-03T01:43:53.120Z,0.50
2023-03-03T02:07:12.378Z,-0.10
2023-03-03T02:10:09.404Z,-0.10
2023-03-03T02:12:58.013Z,-0.20
2023-03-03T02:24:05.938Z,-0.20
2023-03-03T02:32:34.824Z,-0.20
2023-03-03T02:35:19.217Z,-0.20
2023-03-03T02:38:41.296Z,-0.20
2023-03-03T02:44:23.220Z,-0.20
2023-03-03T03:04:18.619Z,-0.40
2023-03-03T03:26:39.101Z,-0.40
2023-03-03T03:29:27.757Z,-0.40
2023-03-03T03:35:25.304Z,-0.40
2023-03-03T03:37:52.140Z,-0.40
2023-03-03T03:40:31.164Z,-0.40
2023-03-03T03:52:35.347Z,-0.20
2023-03-03T04:04:13.116Z,-0.30
2023-03-03T04:15:43.759Z,-0.20
2023-03-03T04:18:21.153Z,-0.20
2023-03-03T04:21:06.143Z,-0.20
2023-03-03T05:11:11.520Z,0.10
2023-03-03T05:16:13.715Z,0.10
2023-03-03T05:21:22.354Z,0.20
2023-03-03T05:23:51.733Z,0.10
2023-03-03T05:32:11.835Z,0.20
2023-03-03T06:02:12.951Z,0.40
2023-03-03T06:04:42.693Z,0.50
2023-03-03T06:07:29.405Z,0.50
2023-03-03T06:10:06.571Z,0.40
2023-03-03T06:15:14.892Z,0.50
2023-03-03T06:17:44.066Z,0.50
2023-03-03T06:22:55.055Z,0.60
2023-03-03T06:28:47.521Z,0.60
2023-03-03T06:31:14.385Z,0.60
2023-03-03T06:33:59.801Z,0.60
2023-03-03T06:36:26.497Z,0.60
2023-03-03T06:38:56.528Z,0.60
2023-03-03T06:41:23.822Z,0.60
2023-03-03T06:57:37.029Z,0.70
2023-03-03T07:00:15.660Z,0.70
2023-03-03T07:05:33.506Z,0.80
2023-03-03T07:08:18.452Z,0.80
2023-03-03T07:26:48.298Z,0.90
2023-03-03T07:26:54.043Z,0.90
2023-03-03T07:52:50.937Z,1.10
2023-03-03T07:55:33.003Z,1.10
2023-03-03T08:01:57.100Z,1.20
2023-03-03T08:04:39.050Z,1.30
2023-03-03T08:07:13.684Z,1.40
2023-03-03T08:12:53.955Z,1.60
2023-03-03T08:15:35.046Z,1.60
2023-03-03T08:21:22.896Z,1.70
2023-03-03T08:24:00.383Z,1.70
2023-03-03T08:26:28.138Z,1.70
2023-03-03T08:29:00.390Z,1.70
2023-03-03T08:31:41.522Z,1.80
2023-03-03T08:34:17.514Z,1.70
2023-03-03T08:36:52.040Z,1.70
2023-03-03T08:39:20.809Z,1.80
2023-03-03T08:41:55.455Z,1.80
2023-03-03T08:44:26.969Z,1.80
2023-03-03T08:47:06.281Z,2.00
2023-03-03T08:49:36.854Z,2.00
2023-03-03T08:52:07.018Z,1.90
2023-03-03T09:10:52.551Z,2.60
2023-03-03T09:18:42.100Z,2.60
2023-03-03T09:21:31.096Z,2.60
2023-03-03T09:24:25.597Z,2.70
2023-03-03T09:26:52.731Z,2.70
2023-03-03T09:30:01.786Z,2.90
2023-03-03T09:32:40.544Z,3.10
2023-03-03T09:38:44.039Z,3.60
2023-03-03T09:47:43.665Z,5.90
2023-03-03T09:50:43.873Z,6.40
2023-03-03T10:00:44.920Z,5.70
2023-03-03T10:03:29.633Z,5.70
2023-03-03T10:06:27.970Z,5.60
2023-03-03T10:09:19.302Z,5.90
2023-03-03T11:07:42.118Z,6.30
2023-03-03T11:13:07.046Z,6.50
2023-03-03T11:16:01.893Z,6.60
2023-03-03T11:46:17.028Z,6.30
2023-03-03T12:26:37.017Z,6.60
2023-03-03T12:29:23.576Z,6.60
2023-03-03T12:32:31.011Z,6.60
2023-03-03T12:35:14.983Z,6.80
2023-03-03T12:38:00.941Z,6.80
2023-03-03T12:41:12.226Z,6.90
2023-03-03T12:44:12.020Z,7.10
2023-03-03T12:47:00.447Z,6.90
2023-03-03T12:50:06.557Z,6.70
2023-03-03T12:52:56.169Z,6.70
2023-03-03T12:56:04.939Z,6.80
2023-03-03T12:58:53.168Z,7.00
2023-03-03T13:01:57.137Z,7.40
2023-03-03T13:04:52.610Z,7.50
2023-03-03T13:07:43.392Z,7.50
2023-03-03T13:10:18.950Z,7.60
2023-03-03T13:12:55.166Z,7.70
2023-03-03T13:16:03.081Z,7.80
2023-03-03T13:19:19.930Z,7.50
2023-03-03T13:22:02.153Z,7.40
2023-03-03T13:28:21.945Z,7.20
2023-03-03T13:38:24.802Z,7.50
2023-03-03T13:41:19.484Z,7.50
2023-03-03T13:47:23.338Z,7.80
2023-03-03T13:54:05.903Z,7.50
2023-03-03T13:57:05.431Z,7.30
2023-03-03T13:59:49.923Z,7.10
2023-03-03T14:02:34.335Z,7.20
2023-03-03T14:05:26.140Z,7.30
2023-03-03T14:14:27.146Z,7.50
2023-03-03T14:17:23.909Z,7.30
2023-03-03T14:20:35.244Z,7.20
2023-03-03T14:23:41.434Z,7.20
2023-03-03T14:26:43.567Z,7.10
2023-03-03T14:30:12.048Z,7.20
2023-03-03T14:36:36.517Z,7.40
2023-03-03T14:39:23.567Z,6.90
2023-03-03T14:41:59.979Z,6.90
2023-03-03T14:47:30.398Z,6.80
2023-03-03T14:50:31.890Z,6.70
2023-03-03T14:53:21.783Z,6.60
2023-03-03T14:55:53.220Z,6.50
2023-03-03T14:58:42.526Z,6.50
2023-03-03T15:01:38.209Z,6.60
2023-03-03T15:04:26.522Z,6.50
2023-03-03T15:07:33.908Z,6.50
2023-03-03T15:10:10.405Z,6.50
2023-03-03T15:12:49.939Z,6.60
2023-03-03T15:15:26.832Z,6.60
2023-03-03T15:25:10.327Z,6.40
2023-03-03T15:30:41.928Z,6.50
2023-03-03T15:33:39.725Z,6.40
2023-03-03T15:36:46.708Z,6.50
2023-03-03T15:39:44.435Z,6.70
2023-03-03T15:42:31.534Z,6.60
2023-03-03T15:45:28.778Z,6.40
2023-03-03T15:48:36.491Z,6.40
2023-03-03T15:51:25.146Z,6.30
2023-03-03T15:54:19.790Z,6.30
2023-03-03T16:00:37.048Z,6.30
2023-03-03T16:03:40.479Z,6.40
2023-03-03T16:09:49.923Z,6.40
2023-03-03T16:16:07.750Z,6.30
2023-03-03T16:22:35.145Z,6.40
2023-03-03T16:25:20.449Z,6.30
2023-03-03T16:28:09.150Z,6.20
2023-03-03T16:34:05.347Z,6.10
2023-03-03T16:37:01.469Z,6.10
2023-03-03T16:39:54.215Z,6.00
2023-03-03T16:42:39.810Z,6.00
2023-03-03T16:45:39.215Z,5.90
2023-03-03T16:48:48.414Z,5.80
2023-03-03T16:55:03.992Z,5.80
2023-03-03T16:57:49.378Z,5.80
2023-03-03T17:00:46.010Z,5.80
2023-03-03T17:03:53.175Z,5.80
2023-03-03T17:06:41.600Z,5.80
2023-03-03T17:09:32.965Z,5.90
2023-03-03T17:12:18.950Z,5.90
2023-03-03T17:15:14.836Z,5.90
2023-03-03T17:22:04.275Z,5.90
2023-03-03T17:25:23.737Z,6.00
2023-03-03T17:32:02.919Z,6.00
2023-03-03T17:34:48.810Z,6.00
2023-03-03T17:37:44.484Z,6.00
2023-03-03T17:43:58.406Z,6.00
2023-03-03T17:46:58.909Z,6.00
2023-03-03T17:49:58.073Z,6.00
2023-03-03T17:55:47.355Z,6.00
2023-03-03T17:58:57.231Z,6.00
2023-03-03T18:01:46.358Z,6.00
2023-03-03T18:04:53.326Z,6.00
2023-03-03T18:07:47.881Z,5.90
2023-03-03T18:10:35.754Z,5.90
2023-03-03T18:13:34.037Z,5.90
2023-03-03T18:20:09.891Z,5.80
2023-03-03T18:26:06.534Z,5.80
2023-03-03T18:28:52.725Z,5.70
2023-03-03T18:32:08.341Z,5.70
2023-03-03T18:34:44.225Z,5.60
2023-03-03T18:37:52.730Z,5.60
2023-03-03T18:46:35.061Z,5.50
2023-03-03T18:49:05.657Z,5.50
2023-03-03T18:51:41.373Z,5.40
2023-03-03T18:54:14.189Z,5.40
2023-03-03T18:56:59.304Z,5.40
2023-03-03T18:59:31.703Z,5.40
2023-03-03T19:02:47.718Z,5.40
2023-03-03T19:05:15.889Z,5.40
2023-03-03T19:11:03.958Z,5.30
2023-03-03T19:13:52.011Z,5.30
2023-03-03T19:17:06.839Z,5.30
2023-03-03T19:20:10.131Z,5.40
2023-03-03T19:23:08.687Z,5.40
2023-03-03T19:25:41.795Z,5.40
2023-03-03T19:31:19.411Z,5.40
2023-03-03T19:33:58.181Z,5.40
2023-03-03T19:37:08.363Z,5.40
2023-03-03T19:40:01.139Z,5.40
2023-03-03T19:42:56.023Z,5.50
2023-03-03T22:40:14.766Z,5.60
